AEROCLUB DE PEZENAS
AEROPORT DE BEZIERS CAP D'AGDE
34420 PORTIRAGNES
TEL: 04.67.01.57.94
contact@aeroclub-pezenas.com
WINDOW MODE | FULLSCREEN MODE
2018/06/19 10:00 LFMU 191000Z AUTO 03007KT 310V100 CAVOK 28/12 Q1020 NOSIG
DOCUMENTS OFFICIELS

REGLEMENT INTERIEUR STATUTS AGO 28/06/2015 COMPTE RENDU DU COMMITE DIRECTEUR - 03/04/2016